createdAt,value
2018-12-14T00:01:41.641Z,86.00
2018-12-14T00:04:07.796Z,86.19
2018-12-14T00:06:33.984Z,86.12
2018-12-14T00:09:00.116Z,86.22
2018-12-14T00:11:26.299Z,86.02
2018-12-14T00:13:52.471Z,84.78
2018-12-14T00:16:18.616Z,85.07
2018-12-14T00:18:44.757Z,87.07
2018-12-14T00:21:10.972Z,86.78
2018-12-14T00:23:37.122Z,86.33
2018-12-14T00:26:03.298Z,86.02
2018-12-14T00:28:29.463Z,86.87
2018-12-14T00:30:56.199Z,87.03
2018-12-14T00:33:22.349Z,86.92
2018-12-14T00:35:48.727Z,86.42
2018-12-14T00:38:14.872Z,86.87
2018-12-14T00:40:41.025Z,86.29
2018-12-14T00:43:07.197Z,86.29
2018-12-14T00:45:33.367Z,86.76
2018-12-14T00:47:59.521Z,86.30
2018-12-14T00:50:25.650Z,87.13
2018-12-14T00:52:51.795Z,87.14
2018-12-14T00:55:17.935Z,86.07
2018-12-14T00:57:44.076Z,86.06
2018-12-14T01:00:10.719Z,85.96
2018-12-14T01:02:37.032Z,85.94
2018-12-14T01:05:04.728Z,86.71
2018-12-14T01:07:30.858Z,85.29
2018-12-14T01:09:56.997Z,85.83
2018-12-14T01:12:23.172Z,84.76
2018-12-14T01:14:49.348Z,85.87
2018-12-14T01:17:15.579Z,85.56
2018-12-14T01:19:41.783Z,85.12
2018-12-14T01:22:07.951Z,85.91
2018-12-14T01:24:34.110Z,86.28
2018-12-14T01:27:01.059Z,85.30
2018-12-14T01:29:27.235Z,84.79
2018-12-14T01:31:53.396Z,84.79
2018-12-14T01:34:19.578Z,84.11
2018-12-14T01:36:45.726Z,85.46
2018-12-14T01:39:11.910Z,85.19
2018-12-14T01:41:38.056Z,85.54
2018-12-14T01:44:04.237Z,85.92
2018-12-14T01:46:30.387Z,84.76
2018-12-14T01:48:56.540Z,84.96
2018-12-14T01:51:22.678Z,84.57
2018-12-14T01:53:48.854Z,85.22
2018-12-14T01:56:15.026Z,85.73
2018-12-14T01:58:41.301Z,85.28
2018-12-14T02:01:07.460Z,84.46
2018-12-14T02:03:33.604Z,84.97
2018-12-14T02:05:59.747Z,85.07
2018-12-14T02:08:25.915Z,85.97
2018-12-14T02:10:52.090Z,86.54
2018-12-14T02:13:18.254Z,85.83
2018-12-14T02:15:44.539Z,85.62
2018-12-14T02:18:10.707Z,86.41
2018-12-14T02:20:36.892Z,86.31
2018-12-14T02:23:03.080Z,85.96
2018-12-14T02:25:29.249Z,85.78
2018-12-14T02:27:55.383Z,85.78
2018-12-14T02:30:35.726Z,86.58
2018-12-14T02:33:01.895Z,84.97
2018-12-14T02:35:28.048Z,85.01
2018-12-14T02:37:54.456Z,85.36
2018-12-14T02:40:20.624Z,85.87
2018-12-14T02:42:46.778Z,85.68
2018-12-14T02:45:12.971Z,86.50
2018-12-14T02:47:39.120Z,86.17
2018-12-14T02:50:05.500Z,86.71
2018-12-14T02:52:31.655Z,86.94
2018-12-14T02:54:58.682Z,87.18
2018-12-14T02:57:24.830Z,87.51
2018-12-14T02:59:50.979Z,88.13
2018-12-14T03:02:17.178Z,88.77
2018-12-14T03:04:43.357Z,89.17
2018-12-14T03:07:09.511Z,90.25
2018-12-14T03:09:35.641Z,90.67
2018-12-14T03:12:01.800Z,91.47
2018-12-14T03:14:27.942Z,91.94
2018-12-14T03:16:54.500Z,92.64
2018-12-14T03:19:20.696Z,92.14
2018-12-14T03:21:46.872Z,93.33
2018-12-14T03:24:13.027Z,93.69
2018-12-14T03:26:39.184Z,94.64
2018-12-14T03:29:05.365Z,94.36
2018-12-14T03:31:31.537Z,96.03
2018-12-14T03:33:57.691Z,96.47
2018-12-14T03:36:23.875Z,96.70
2018-12-14T03:38:50.026Z,97.55
2018-12-14T03:41:16.169Z,97.72
2018-12-14T03:43:42.317Z,97.51
2018-12-14T03:46:08.458Z,96.72
2018-12-14T03:48:34.744Z,95.42
2018-12-14T03:51:00.863Z,93.81
2018-12-14T03:53:27.032Z,94.01
2018-12-14T03:55:53.179Z,92.51
2018-12-14T03:58:19.476Z,90.89
2018-12-14T04:00:45.871Z,92.06
2018-12-14T04:03:12.081Z,91.25
2018-12-14T04:05:38.476Z,90.45
2018-12-14T04:08:04.620Z,90.65
2018-12-14T04:10:30.765Z,90.41
2018-12-14T04:12:56.896Z,93.79
2018-12-14T04:15:23.065Z,92.49
2018-12-14T04:17:49.223Z,92.18
2018-12-14T04:20:15.363Z,94.12
2018-12-14T04:22:41.559Z,94.95
2018-12-14T04:25:07.705Z,95.59
2018-12-14T04:27:33.843Z,96.74
2018-12-14T04:29:59.976Z,96.89
2018-12-14T04:32:26.141Z,98.14
2018-12-14T04:34:52.288Z,97.94
2018-12-14T04:37:18.472Z,98.76
2018-12-14T04:39:44.627Z,98.41
2018-12-14T04:42:10.752Z,98.32
2018-12-14T04:44:37.763Z,98.71
2018-12-14T04:47:04.167Z,98.29
2018-12-14T04:49:30.617Z,98.63
2018-12-14T04:51:56.765Z,97.89
2018-12-14T04:54:23.118Z,98.06
2018-12-14T04:56:49.260Z,97.22
2018-12-14T04:59:15.383Z,97.52
2018-12-14T05:01:41.512Z,97.66
2018-12-14T05:04:07.664Z,98.10
2018-12-14T05:06:33.850Z,97.27
2018-12-14T05:08:59.995Z,97.71
2018-12-14T05:11:26.135Z,97.36
2018-12-14T05:13:52.299Z,96.83
2018-12-14T05:16:18.406Z,96.61
2018-12-14T05:18:44.535Z,96.51
2018-12-14T05:21:10.679Z,96.37
2018-12-14T05:23:36.795Z,96.45
2018-12-14T05:26:02.937Z,96.56
2018-12-14T05:28:29.056Z,96.17
2018-12-14T05:30:55.214Z,95.41
2018-12-14T05:33:21.356Z,95.64
2018-12-14T05:35:47.514Z,95.21
2018-12-14T05:38:13.626Z,94.92
2018-12-14T05:40:39.775Z,94.57
2018-12-14T05:43:05.892Z,94.11
2018-12-14T05:45:32.035Z,93.80
2018-12-14T05:47:58.170Z,93.70
2018-12-14T05:50:24.326Z,93.51
2018-12-14T05:52:50.478Z,92.83
2018-12-14T05:55:16.620Z,92.91
2018-12-14T05:57:42.741Z,93.42
2018-12-14T06:00:11.079Z,92.34
2018-12-14T06:02:37.200Z,93.59
2018-12-14T06:05:04.410Z,92.89
2018-12-14T06:07:30.551Z,92.45
2018-12-14T06:09:56.700Z,92.36
2018-12-14T06:12:23.004Z,93.18
2018-12-14T06:14:49.134Z,94.49
2018-12-14T06:17:15.278Z,93.76
2018-12-14T06:19:41.415Z,94.14
2018-12-14T06:22:07.547Z,94.49
2018-12-14T06:24:33.674Z,94.46
2018-12-14T06:26:59.821Z,94.07
2018-12-14T06:29:25.944Z,94.83
2018-12-14T06:31:52.098Z,94.71
2018-12-14T06:34:18.237Z,94.43
2018-12-14T06:36:44.389Z,94.54
2018-12-14T06:39:10.533Z,94.97
2018-12-14T06:41:36.828Z,94.73
2018-12-14T06:44:02.997Z,94.69
2018-12-14T06:46:30.102Z,94.79
2018-12-14T06:48:56.235Z,95.57
2018-12-14T06:51:22.379Z,95.36
2018-12-14T06:53:48.515Z,94.50
2018-12-14T06:56:14.639Z,95.00
2018-12-14T06:58:40.793Z,95.08
2018-12-14T07:01:06.957Z,95.18
2018-12-14T07:03:33.215Z,94.86
2018-12-14T07:05:59.347Z,94.20
2018-12-14T07:08:25.497Z,93.92
2018-12-14T07:10:51.795Z,93.79
2018-12-14T07:13:21.811Z,94.22
2018-12-14T07:15:46.123Z,93.14
2018-12-14T07:18:12.301Z,92.68
2018-12-14T07:20:38.679Z,92.96
2018-12-14T07:23:04.824Z,92.90
2018-12-14T07:25:30.952Z,92.69
2018-12-14T07:27:57.223Z,92.05
2018-12-14T07:30:23.378Z,92.10
2018-12-14T07:32:49.686Z,91.15
2018-12-14T07:35:15.843Z,91.37
2018-12-14T07:37:41.985Z,91.65
2018-12-14T07:40:08.143Z,90.80
2018-12-14T07:42:34.283Z,90.70
2018-12-14T07:45:00.422Z,91.13
2018-12-14T07:47:26.578Z,90.44
2018-12-14T07:49:52.731Z,89.10
2018-12-14T07:52:18.894Z,88.32
2018-12-14T07:54:45.056Z,88.13
2018-12-14T07:57:11.201Z,88.80
2018-12-14T07:59:37.346Z,85.91
2018-12-14T08:02:03.489Z,83.90
2018-12-14T08:04:29.875Z,84.22
2018-12-14T08:06:56.639Z,84.78
2018-12-14T08:09:22.766Z,85.05
2018-12-14T08:11:48.896Z,86.22
2018-12-14T08:14:15.049Z,85.37
2018-12-14T08:16:41.176Z,85.17
2018-12-14T08:19:07.306Z,85.06
2018-12-14T08:21:33.440Z,86.02
2018-12-14T08:23:59.587Z,86.89
2018-12-14T08:26:25.716Z,86.90
2018-12-14T08:28:51.847Z,86.35
2018-12-14T08:31:17.978Z,87.02
2018-12-14T08:33:44.115Z,85.74
2018-12-14T08:36:10.240Z,83.82
2018-12-14T08:38:36.382Z,84.43
2018-12-14T08:41:02.542Z,85.33
2018-12-14T08:43:28.663Z,84.67
2018-12-14T08:45:54.780Z,85.85
2018-12-14T08:48:21.073Z,86.01
2018-12-14T08:50:47.373Z,86.79
2018-12-14T08:53:13.752Z,86.29
2018-12-14T08:55:39.911Z,86.38
2018-12-14T08:58:06.069Z,85.20
2018-12-14T09:00:32.220Z,85.91
2018-12-14T09:02:58.349Z,85.12
2018-12-14T09:05:24.526Z,86.26
2018-12-14T09:07:50.641Z,85.06
2018-12-14T09:10:16.795Z,85.52
2018-12-14T09:12:42.952Z,85.20
2018-12-14T09:15:09.110Z,85.01
2018-12-14T09:17:35.248Z,84.85
2018-12-14T09:20:01.654Z,84.43
2018-12-14T09:22:27.890Z,84.40
2018-12-14T09:24:54.067Z,84.90
2018-12-14T09:27:20.215Z,84.64
2018-12-14T09:29:46.346Z,83.97
2018-12-14T09:32:12.494Z,83.56
2018-12-14T09:34:39.225Z,84.51
2018-12-14T09:37:05.375Z,84.94
2018-12-14T09:39:31.509Z,85.99
2018-12-14T09:41:57.643Z,83.89
2018-12-14T09:44:23.765Z,83.84
2018-12-14T09:46:49.901Z,84.48
2018-12-14T09:49:16.055Z,84.96
2018-12-14T09:51:42.213Z,85.05
2018-12-14T09:54:08.331Z,84.75
2018-12-14T09:56:34.462Z,84.71
2018-12-14T09:59:00.596Z,85.52
2018-12-14T10:01:26.729Z,85.43
2018-12-14T10:03:53.096Z,86.06
2018-12-14T10:06:19.227Z,86.29
2018-12-14T10:08:45.378Z,85.56
2018-12-14T10:11:11.547Z,85.72
2018-12-14T10:13:37.712Z,86.51
2018-12-14T10:16:04.025Z,85.45
2018-12-14T10:18:30.311Z,85.31
2018-12-14T10:20:56.454Z,85.13
2018-12-14T10:23:22.603Z,85.33
2018-12-14T10:25:48.761Z,84.13
2018-12-14T10:28:14.916Z,84.11
2018-12-14T10:30:41.039Z,83.82
2018-12-14T10:33:07.196Z,84.73
2018-12-14T10:35:33.369Z,85.09
2018-12-14T10:37:59.556Z,86.10
2018-12-14T10:40:25.726Z,85.39
2018-12-14T10:42:51.866Z,86.02
2018-12-14T10:45:18.151Z,85.07
2018-12-14T10:47:44.288Z,85.55
2018-12-14T10:50:11.168Z,85.95
2018-12-14T10:52:37.297Z,86.39
2018-12-14T10:55:04.797Z,86.61
2018-12-14T10:57:32.235Z,86.06
2018-12-14T10:59:58.427Z,86.22
2018-12-14T11:02:24.673Z,86.08
2018-12-14T11:04:50.813Z,85.52
2018-12-14T11:07:16.951Z,85.74
2018-12-14T11:09:43.105Z,86.39
2018-12-14T11:12:09.274Z,86.42
2018-12-14T11:14:35.415Z,86.09
2018-12-14T11:17:01.563Z,86.54
2018-12-14T11:19:27.743Z,85.25
2018-12-14T11:21:53.867Z,85.71
2018-12-14T11:24:20.015Z,86.68
2018-12-14T11:26:46.133Z,86.45
2018-12-14T11:29:12.283Z,87.44
2018-12-14T11:31:38.430Z,87.05
2018-12-14T11:34:04.580Z,86.98
2018-12-14T11:36:30.867Z,86.79
2018-12-14T11:38:57.009Z,87.39
2018-12-14T11:41:23.200Z,86.99
2018-12-14T11:43:49.318Z,87.78
2018-12-14T11:46:15.476Z,87.65
2018-12-14T11:48:41.631Z,87.48
2018-12-14T11:51:09.142Z,87.75
2018-12-14T11:53:35.297Z,87.40
2018-12-14T11:56:01.476Z,85.86
2018-12-14T11:58:27.617Z,86.31
2018-12-14T12:00:53.790Z,86.40
2018-12-14T12:03:19.933Z,85.30
2018-12-14T12:05:46.098Z,84.71
2018-12-14T12:08:12.811Z,85.00
2018-12-14T12:10:38.964Z,84.98
2018-12-14T12:13:05.129Z,85.22
2018-12-14T12:15:31.286Z,85.06
2018-12-14T12:17:57.433Z,85.00
2018-12-14T12:20:23.568Z,85.06
2018-12-14T12:22:49.721Z,85.58
2018-12-14T12:25:15.873Z,85.07
2018-12-14T12:27:42.074Z,85.58
2018-12-14T12:30:09.231Z,86.18
2018-12-14T12:32:35.392Z,86.80
2018-12-14T12:35:01.673Z,86.92
2018-12-14T12:37:27.905Z,85.78
2018-12-14T12:39:54.065Z,86.12
2018-12-14T12:42:20.223Z,85.70
2018-12-14T12:44:46.365Z,86.43
2018-12-14T12:47:12.522Z,86.87
2018-12-14T12:49:38.807Z,87.36
2018-12-14T12:52:05.034Z,86.32
2018-12-14T12:54:31.211Z,86.60
2018-12-14T12:56:57.360Z,85.42
2018-12-14T12:59:24.671Z,84.81
2018-12-14T13:01:51.676Z,84.65
2018-12-14T13:04:17.831Z,85.02
2018-12-14T13:06:44.017Z,85.25
2018-12-14T13:09:10.189Z,84.90
2018-12-14T13:11:36.336Z,84.39
2018-12-14T13:14:02.558Z,85.39
2018-12-14T13:16:28.686Z,84.21
2018-12-14T13:18:54.854Z,84.78
2018-12-14T13:21:21.021Z,84.60
2018-12-14T13:23:47.206Z,84.53
2018-12-14T13:26:13.932Z,84.70
2018-12-14T13:28:40.251Z,85.76
2018-12-14T13:31:06.417Z,85.40
2018-12-14T13:33:32.805Z,86.22
2018-12-14T13:35:58.980Z,85.58
2018-12-14T13:38:25.118Z,84.92
2018-12-14T13:40:51.267Z,85.60
2018-12-14T13:43:17.538Z,86.20
2018-12-14T13:45:43.719Z,84.72
2018-12-14T13:48:09.931Z,85.29
2018-12-14T13:50:36.199Z,85.48
2018-12-14T13:53:02.401Z,84.23
2018-12-14T13:55:28.564Z,84.38
2018-12-14T13:57:54.739Z,85.24
2018-12-14T14:00:21.648Z,85.47
2018-12-14T14:02:47.952Z,85.60
2018-12-14T14:05:14.119Z,85.60
2018-12-14T14:07:40.312Z,85.84
2018-12-14T14:10:06.603Z,86.81
2018-12-14T14:12:32.767Z,85.91
2018-12-14T14:14:59.158Z,85.75
2018-12-14T14:17:25.301Z,85.39
2018-12-14T14:19:52.364Z,85.58
2018-12-14T14:22:18.630Z,85.46
2018-12-14T14:24:44.772Z,85.83
2018-12-14T14:27:10.935Z,84.84
2018-12-14T14:29:37.109Z,86.27
2018-12-14T14:32:03.265Z,84.54
2018-12-14T14:34:29.422Z,85.25
2018-12-14T14:36:55.634Z,84.98
2018-12-14T14:39:21.788Z,85.42
2018-12-14T14:41:47.936Z,86.81
2018-12-14T14:44:14.948Z,85.42
2018-12-14T14:46:41.106Z,85.74
2018-12-14T14:49:07.295Z,84.96
2018-12-14T14:51:33.719Z,86.28
2018-12-14T14:53:59.861Z,85.30
2018-12-14T14:56:26.060Z,84.13
2018-12-14T14:58:52.254Z,83.62
2018-12-14T15:01:18.463Z,85.19
2018-12-14T15:03:44.614Z,83.89
2018-12-14T15:06:10.783Z,84.45
2018-12-14T15:08:36.944Z,85.13
2018-12-14T15:11:03.140Z,85.14
2018-12-14T15:13:29.350Z,84.29
2018-12-14T15:15:55.534Z,84.28
2018-12-14T15:18:21.689Z,84.08
2018-12-14T15:20:47.857Z,85.54
2018-12-14T15:23:14.023Z,84.87
2018-12-14T15:25:40.204Z,83.18
2018-12-14T15:28:06.348Z,84.20
2018-12-14T15:30:32.517Z,84.52
2018-12-14T15:32:58.662Z,83.26
2018-12-14T15:35:24.960Z,82.89
2018-12-14T15:37:51.243Z,83.16
2018-12-14T15:40:17.371Z,83.00
2018-12-14T15:42:43.506Z,83.35
2018-12-14T15:45:13.135Z,83.35
2018-12-14T15:47:37.848Z,83.43
2018-12-14T15:50:04.263Z,83.30
2018-12-14T15:52:30.515Z,83.44
2018-12-14T15:54:56.687Z,83.72
2018-12-14T15:57:22.827Z,84.37
2018-12-14T15:59:48.992Z,84.22
2018-12-14T16:02:15.165Z,85.76
2018-12-14T16:04:41.303Z,84.66
2018-12-14T16:07:07.605Z,84.12
2018-12-14T16:09:33.768Z,85.17
2018-12-14T16:11:59.971Z,85.20
2018-12-14T16:14:26.316Z,85.53
2018-12-14T16:16:52.509Z,86.20
2018-12-14T16:19:18.708Z,84.20
2018-12-14T16:21:45.004Z,82.15
2018-12-14T16:24:11.195Z,82.47
2018-12-14T16:26:37.395Z,82.96
2018-12-14T16:29:03.535Z,85.74
2018-12-14T16:31:29.949Z,85.18
2018-12-14T16:33:56.142Z,84.55
2018-12-14T16:36:22.299Z,84.09
2018-12-14T16:38:48.455Z,83.87
2018-12-14T16:41:14.614Z,82.63
2018-12-14T16:43:40.776Z,82.46
2018-12-14T16:46:06.943Z,82.66
2018-12-14T16:48:33.130Z,83.05
2018-12-14T16:50:59.307Z,84.64
2018-12-14T16:53:25.513Z,85.48
2018-12-14T16:55:51.654Z,85.27
2018-12-14T16:58:17.804Z,84.55
2018-12-14T17:00:43.991Z,84.61
2018-12-14T17:03:10.151Z,84.56
2018-12-14T17:05:36.317Z,83.61
2018-12-14T17:08:02.628Z,84.01
2018-12-14T17:10:28.759Z,84.44
2018-12-14T17:12:54.932Z,84.77
2018-12-14T17:15:21.104Z,84.39
2018-12-14T17:17:47.309Z,83.54
2018-12-14T17:20:13.476Z,82.81
2018-12-14T17:22:39.675Z,84.08
2018-12-14T17:25:06.256Z,84.90
2018-12-14T17:27:32.423Z,83.91
2018-12-14T17:29:58.591Z,84.07
2018-12-14T17:32:24.732Z,84.75
2018-12-14T17:34:50.888Z,84.62
2018-12-14T17:37:17.028Z,84.49
2018-12-14T17:39:43.232Z,85.22
2018-12-14T17:42:09.419Z,84.57
2018-12-14T17:44:35.592Z,83.34
2018-12-14T17:47:01.991Z,84.75
2018-12-14T17:49:28.123Z,84.66
2018-12-14T17:51:54.314Z,83.90
2018-12-14T17:54:20.443Z,83.64
2018-12-14T17:56:46.604Z,84.45
2018-12-14T17:59:12.754Z,84.93
2018-12-14T18:01:39.168Z,85.01
2018-12-14T18:04:05.328Z,84.97
2018-12-14T18:06:31.493Z,82.99
2018-12-14T18:08:57.657Z,83.34
2018-12-14T18:11:23.830Z,86.79
2018-12-14T18:13:50.035Z,87.63
2018-12-14T18:16:16.651Z,87.10
2018-12-14T18:18:42.894Z,86.88
2018-12-14T18:21:09.064Z,87.01
2018-12-14T18:23:35.195Z,87.55
2018-12-14T18:26:01.347Z,87.37
2018-12-14T18:28:27.492Z,86.59
2018-12-14T18:30:53.787Z,86.33
2018-12-14T18:33:19.945Z,85.58
2018-12-14T18:35:46.143Z,85.94
2018-12-14T18:38:12.298Z,87.15
2018-12-14T18:40:38.489Z,87.60
2018-12-14T18:43:04.659Z,88.66
2018-12-14T18:45:30.819Z,89.37
2018-12-14T18:47:56.983Z,88.23
2018-12-14T18:50:23.151Z,88.39
2018-12-14T18:52:49.330Z,88.27
2018-12-14T18:55:15.488Z,88.96
2018-12-14T18:57:41.660Z,88.52
2018-12-14T19:00:08.464Z,87.89
2018-12-14T19:02:34.635Z,88.37
2018-12-14T19:05:00.811Z,88.90
2018-12-14T19:07:26.984Z,89.31
2018-12-14T19:09:53.387Z,90.61
2018-12-14T19:12:20.209Z,90.05
2018-12-14T19:14:46.358Z,89.79
2018-12-14T19:17:12.504Z,90.67
2018-12-14T19:19:38.699Z,90.83
2018-12-14T19:22:04.836Z,90.91
2018-12-14T19:24:30.999Z,91.25
2018-12-14T19:26:57.198Z,91.00
2018-12-14T19:29:23.334Z,91.09
2018-12-14T19:31:49.499Z,91.66
2018-12-14T19:34:15.647Z,91.19
2018-12-14T19:36:41.837Z,91.18
2018-12-14T19:39:08.244Z,92.00
2018-12-14T19:41:34.393Z,92.45
2018-12-14T19:44:00.535Z,91.17
2018-12-14T19:46:26.712Z,90.64
2018-12-14T19:48:52.855Z,91.52
2018-12-14T19:51:19.002Z,91.40
2018-12-14T19:53:45.147Z,90.38
2018-12-14T19:56:11.354Z,89.87
2018-12-14T19:58:37.526Z,89.78
2018-12-14T20:01:03.677Z,89.87
2018-12-14T20:03:29.867Z,89.43
2018-12-14T20:05:56.015Z,89.90
2018-12-14T20:08:22.179Z,89.57
2018-12-14T20:10:48.642Z,90.02
2018-12-14T20:13:15.033Z,89.87
2018-12-14T20:15:41.179Z,90.20
2018-12-14T20:18:07.353Z,90.17
2018-12-14T20:20:34.552Z,89.55
2018-12-14T20:23:00.707Z,89.57
2018-12-14T20:25:27.627Z,89.18
2018-12-14T20:27:53.783Z,90.27
2018-12-14T20:30:20.168Z,89.58
2018-12-14T20:32:46.326Z,90.18
2018-12-14T20:35:12.805Z,90.52
2018-12-14T20:37:38.964Z,90.19
2018-12-14T20:40:05.465Z,90.65
2018-12-14T20:42:31.658Z,90.47
2018-12-14T20:44:57.801Z,90.77
2018-12-14T20:47:23.935Z,90.63
2018-12-14T20:49:50.116Z,90.74
2018-12-14T20:52:16.331Z,90.97
2018-12-14T20:54:42.475Z,90.57
2018-12-14T20:57:08.627Z,90.21
2018-12-14T20:59:34.749Z,89.88
2018-12-14T21:02:00.890Z,90.56
2018-12-14T21:04:27.054Z,90.23
2018-12-14T21:06:53.223Z,89.86
2018-12-14T21:09:19.395Z,89.47
2018-12-14T21:11:45.546Z,89.85
2018-12-14T21:14:11.688Z,89.38
2018-12-14T21:16:38.429Z,90.47
2018-12-14T21:19:04.604Z,90.49
2018-12-14T21:21:30.751Z,89.30
2018-12-14T21:23:56.912Z,89.47
2018-12-14T21:26:23.067Z,89.95
2018-12-14T21:28:49.219Z,89.53
2018-12-14T21:31:15.351Z,89.79
2018-12-14T21:33:41.511Z,90.16
2018-12-14T21:36:07.627Z,90.24
2018-12-14T21:38:33.789Z,89.65
2018-12-14T21:40:59.921Z,90.77
2018-12-14T21:43:26.979Z,90.50
2018-12-14T21:45:53.101Z,90.03
2018-12-14T21:48:19.257Z,90.33
2018-12-14T21:50:45.407Z,90.33
2018-12-14T21:53:14.611Z,91.44
2018-12-14T21:55:39.766Z,91.28
2018-12-14T21:58:05.923Z,90.87
2018-12-14T22:00:32.063Z,91.21
2018-12-14T22:02:58.211Z,91.85
2018-12-14T22:05:24.366Z,91.48
2018-12-14T22:07:50.503Z,91.25
2018-12-14T22:10:16.654Z,91.16
2018-12-14T22:12:42.776Z,90.88
2018-12-14T22:15:09.061Z,90.37
2018-12-14T22:17:35.182Z,91.53
2018-12-14T22:20:01.384Z,91.00
2018-12-14T22:22:27.544Z,91.30
2018-12-14T22:24:53.663Z,91.73
2018-12-14T22:27:19.797Z,92.04
2018-12-14T22:29:45.958Z,91.58
2018-12-14T22:32:12.119Z,91.61
2018-12-14T22:34:38.240Z,91.54
2018-12-14T22:37:04.358Z,90.83
2018-12-14T22:39:30.876Z,90.93
2018-12-14T22:41:57.574Z,91.63
2018-12-14T22:44:23.727Z,92.10
2018-12-14T22:46:49.867Z,92.06
2018-12-14T22:49:16.023Z,92.40
2018-12-14T22:51:42.154Z,92.23
2018-12-14T22:54:08.342Z,92.90
2018-12-14T22:56:34.487Z,92.03
2018-12-14T22:59:00.615Z,91.53
2018-12-14T23:01:26.912Z,92.40
2018-12-14T23:03:53.048Z,92.61
2018-12-14T23:06:19.187Z,92.59
2018-12-14T23:08:45.310Z,92.87
2018-12-14T23:11:11.460Z,91.94
2018-12-14T23:13:37.597Z,91.67
2018-12-14T23:16:03.723Z,92.24
2018-12-14T23:18:29.840Z,92.78
2018-12-14T23:20:55.980Z,94.01
2018-12-14T23:23:22.151Z,93.10
2018-12-14T23:25:48.617Z,92.25
2018-12-14T23:28:15.870Z,92.56
2018-12-14T23:30:42.020Z,92.54
2018-12-14T23:33:08.168Z,92.08
2018-12-14T23:35:34.337Z,92.88
2018-12-14T23:38:00.500Z,92.33
2018-12-14T23:40:26.651Z,91.71
2018-12-14T23:42:52.810Z,92.08
2018-12-14T23:45:18.919Z,92.98
2018-12-14T23:47:45.091Z,92.88
2018-12-14T23:50:11.251Z,93.02
2018-12-14T23:52:37.420Z,92.90
2018-12-14T23:55:03.714Z,93.38
2018-12-14T23:57:29.866Z,93.02
2018-12-14T23:59:56.003Z,93.06
